SP8K2 EPRZ-EPPO
Flight info
| Callsign | SP8K2 |
|---|---|
| Flight time | 0h 50m |
| Altitude | 36000 |
| Route | ETITI L981 NILPU |
| Aircraft | CL60/M-SBDE1E2E3FGHIJ1J4J5J7M3RWXYZ/LB1V1D1 |
Departure
| Time | 2026-04-26 17:50 |
|---|---|
| Airport | Rzeszów-Jasionka Airport (EPRZ) |
Arrival
| Time | 2026-04-26 18:41 |
|---|---|
| Airport | Poznań-Ławica Airport (EPPO) |
| Time | Latitude | Longitude | Altitude | Speed | Heading |
|---|---|---|---|---|---|
| 2026-04-26 17:19 | 50.11272 | 22.00260 | 692 ft | 0 kts | 360° |
| 2026-04-26 17:41 | 50.11273 | 22.00260 | 692 ft | 0 kts | 360° |
| 2026-04-26 17:41 | 50.11272 | 22.00260 | 692 ft | 1 kts | 360° |
| 2026-04-26 17:41 | 50.11258 | 22.00260 | 692 ft | 2 kts | 0° |
| 2026-04-26 17:41 | 50.11242 | 22.00260 | 692 ft | 2 kts | 360° |
| 2026-04-26 17:42 | 50.11227 | 22.00260 | 691 ft | 2 kts | 0° |
| 2026-04-26 17:42 | 50.11212 | 22.00259 | 691 ft | 2 kts | 10° |
| 2026-04-26 17:42 | 50.11198 | 22.00252 | 691 ft | 2 kts | 25° |
| 2026-04-26 17:42 | 50.11187 | 22.00238 | 691 ft | 2 kts | 60° |
| 2026-04-26 17:43 | 50.11179 | 22.00218 | 690 ft | 2 kts | 72° |
| 2026-04-26 17:43 | 50.11177 | 22.00204 | 690 ft | 0 kts | 73° |
| 2026-04-26 17:43 | 50.11181 | 22.00231 | 690 ft | 3 kts | 84° |
| 2026-04-26 17:43 | 50.11181 | 22.00248 | 691 ft | 0 kts | 91° |
| 2026-04-26 17:44 | 50.11181 | 22.00250 | 691 ft | 0 kts | 92° |
| 2026-04-26 17:45 | 50.11181 | 22.00259 | 690 ft | 2 kts | 92° |
| 2026-04-26 17:46 | 50.11180 | 22.00313 | 690 ft | 7 kts | 91° |
| 2026-04-26 17:46 | 50.11179 | 22.00421 | 689 ft | 12 kts | 91° |
| 2026-04-26 17:46 | 50.11177 | 22.00587 | 687 ft | 17 kts | 91° |
| 2026-04-26 17:46 | 50.11174 | 22.00792 | 687 ft | 20 kts | 91° |
| 2026-04-26 17:47 | 50.11171 | 22.01033 | 687 ft | 23 kts | 91° |
| 2026-04-26 17:47 | 50.11169 | 22.01214 | 688 ft | 25 kts | 91° |
| 2026-04-26 17:47 | 50.11163 | 22.01603 | 687 ft | 29 kts | 91° |
| 2026-04-26 17:47 | 50.11159 | 22.01927 | 687 ft | 31 kts | 91° |
| 2026-04-26 17:48 | 50.11155 | 22.02265 | 683 ft | 24 kts | 91° |
| 2026-04-26 17:48 | 50.11152 | 22.02442 | 683 ft | 14 kts | 91° |
| 2026-04-26 17:48 | 50.11150 | 22.02625 | 681 ft | 19 kts | 91° |
| 2026-04-26 17:48 | 50.11127 | 22.02727 | 679 ft | 9 kts | 152° |
| 2026-04-26 17:49 | 50.11082 | 22.02730 | 679 ft | 0 kts | 181° |
| 2026-04-26 17:49 | 50.11052 | 22.02729 | 679 ft | 12 kts | 181° |
| 2026-04-26 17:49 | 50.10986 | 22.02650 | 680 ft | 11 kts | 272° |
| 2026-04-26 17:50 | 50.10987 | 22.02608 | 680 ft | 11 kts | 271° |
| 2026-04-26 17:50 | 50.10998 | 22.02044 | 684 ft | 101 kts | 274° |
| 2026-04-26 17:50 | 50.11006 | 22.00525 | 824 ft | 171 kts | 273° |
| 2026-04-26 17:50 | 50.11030 | 21.98576 | 1688 ft | 193 kts | 275° |
| 2026-04-26 17:51 | 50.11018 | 21.96565 | 2792 ft | 178 kts | 278° |
| 2026-04-26 17:51 | 50.11048 | 21.94673 | 3746 ft | 186 kts | 279° |
| 2026-04-26 17:51 | 50.11086 | 21.92618 | 4858 ft | 196 kts | 279° |
| 2026-04-26 17:51 | 50.11152 | 21.90521 | 5870 ft | 209 kts | 286° |
| 2026-04-26 17:52 | 50.11793 | 21.88361 | 6463 ft | 232 kts | 307° |
| 2026-04-26 17:52 | 50.12709 | 21.86282 | 7184 ft | 241 kts | 308° |
| 2026-04-26 17:52 | 50.13656 | 21.84135 | 7957 ft | 244 kts | 308° |
| 2026-04-26 17:52 | 50.14606 | 21.81936 | 8783 ft | 246 kts | 307° |
| 2026-04-26 17:53 | 50.15550 | 21.79710 | 9601 ft | 248 kts | 308° |
| 2026-04-26 17:53 | 50.16488 | 21.77495 | 10399 ft | 250 kts | 307° |
| 2026-04-26 17:53 | 50.17443 | 21.75224 | 11244 ft | 251 kts | 308° |
| 2026-04-26 17:54 | 50.19433 | 21.70474 | 13040 ft | 277 kts | 308° |
| 2026-04-26 17:54 | 50.20482 | 21.67965 | 14029 ft | 284 kts | 308° |
| 2026-04-26 17:54 | 50.21558 | 21.65381 | 15134 ft | 288 kts | 308° |
| 2026-04-26 17:54 | 50.22640 | 21.62779 | 16244 ft | 290 kts | 308° |
| 2026-04-26 17:55 | 50.23732 | 21.60149 | 17351 ft | 290 kts | 308° |
| 2026-04-26 17:55 | 50.24808 | 21.57554 | 18352 ft | 291 kts | 308° |
| 2026-04-26 17:55 | 50.25930 | 21.54859 | 18833 ft | 307 kts | 308° |
| 2026-04-26 17:55 | 50.27129 | 21.51974 | 19295 ft | 321 kts | 307° |
| 2026-04-26 17:56 | 50.28351 | 21.49027 | 19833 ft | 332 kts | 307° |
| 2026-04-26 17:56 | 50.30916 | 21.42818 | 21017 ft | 347 kts | 307° |
| 2026-04-26 17:57 | 50.33539 | 21.36449 | 22274 ft | 355 kts | 307° |
| 2026-04-26 17:57 | 50.34883 | 21.33178 | 22925 ft | 357 kts | 306° |
| 2026-04-26 17:57 | 50.36224 | 21.29911 | 23582 ft | 359 kts | 306° |
| 2026-04-26 17:57 | 50.37575 | 21.26616 | 24251 ft | 360 kts | 306° |
| 2026-04-26 17:58 | 50.41605 | 21.16761 | 26259 ft | 357 kts | 305° |
| 2026-04-26 17:59 | 50.44253 | 21.10266 | 27559 ft | 353 kts | 305° |
| 2026-04-26 17:59 | 50.45555 | 21.07067 | 28182 ft | 351 kts | 305° |
| 2026-04-26 17:59 | 50.46867 | 21.03841 | 28799 ft | 350 kts | 304° |
| 2026-04-26 17:59 | 50.48173 | 21.00626 | 29397 ft | 348 kts | 304° |
| 2026-04-26 18:00 | 50.49466 | 20.97440 | 29986 ft | 347 kts | 304° |
| 2026-04-26 18:00 | 50.50748 | 20.94274 | 30540 ft | 346 kts | 304° |
| 2026-04-26 18:00 | 50.52034 | 20.91099 | 31087 ft | 347 kts | 304° |
| 2026-04-26 18:00 | 50.53335 | 20.87879 | 31629 ft | 347 kts | 304° |
| 2026-04-26 18:01 | 50.54620 | 20.84699 | 32158 ft | 346 kts | 304° |
| 2026-04-26 18:01 | 50.55904 | 20.81513 | 32669 ft | 346 kts | 303° |
| 2026-04-26 18:01 | 50.57190 | 20.78321 | 33170 ft | 346 kts | 303° |
| 2026-04-26 18:01 | 50.58471 | 20.75136 | 33655 ft | 345 kts | 303° |
| 2026-04-26 18:02 | 50.59755 | 20.71942 | 34127 ft | 345 kts | 303° |
| 2026-04-26 18:02 | 50.60599 | 20.69839 | 34423 ft | 345 kts | 303° |
| 2026-04-26 18:02 | 50.62302 | 20.65591 | 34966 ft | 343 kts | 303° |
| 2026-04-26 18:02 | 50.63586 | 20.62383 | 35334 ft | 343 kts | 303° |
| 2026-04-26 18:03 | 50.64850 | 20.59223 | 35681 ft | 342 kts | 303° |
| 2026-04-26 18:03 | 50.66121 | 20.56040 | 36013 ft | 341 kts | 303° |
| 2026-04-26 18:03 | 50.67386 | 20.52870 | 36211 ft | 344 kts | 303° |
| 2026-04-26 18:03 | 50.68687 | 20.49604 | 36240 ft | 352 kts | 303° |
| 2026-04-26 18:04 | 50.71357 | 20.42891 | 36238 ft | 367 kts | 303° |
| 2026-04-26 18:05 | 50.75547 | 20.32323 | 36240 ft | 384 kts | 302° |
| 2026-04-26 18:05 | 50.78387 | 20.25132 | 36239 ft | 388 kts | 302° |
| 2026-04-26 18:06 | 50.81216 | 20.17951 | 36239 ft | 387 kts | 302° |
| 2026-04-26 18:06 | 50.84047 | 20.10743 | 36237 ft | 386 kts | 302° |
| 2026-04-26 18:07 | 50.86871 | 20.03534 | 36235 ft | 386 kts | 302° |
| 2026-04-26 18:07 | 50.89701 | 19.96291 | 36235 ft | 387 kts | 302° |
| 2026-04-26 18:08 | 50.92532 | 19.89025 | 36236 ft | 387 kts | 302° |
| 2026-04-26 18:08 | 50.95367 | 19.81726 | 36238 ft | 388 kts | 302° |
| 2026-04-26 18:09 | 50.98184 | 19.74453 | 36238 ft | 387 kts | 302° |
| 2026-04-26 18:09 | 51.00983 | 19.67208 | 36239 ft | 387 kts | 302° |
| 2026-04-26 18:10 | 51.03782 | 19.59942 | 36236 ft | 387 kts | 302° |
| 2026-04-26 18:10 | 51.06595 | 19.52619 | 36240 ft | 388 kts | 302° |
| 2026-04-26 18:11 | 51.09397 | 19.45304 | 36230 ft | 389 kts | 302° |
| 2026-04-26 18:11 | 51.12209 | 19.37942 | 36239 ft | 390 kts | 302° |
| 2026-04-26 18:12 | 51.15012 | 19.30581 | 36233 ft | 390 kts | 302° |
| 2026-04-26 18:12 | 51.17822 | 19.23183 | 36238 ft | 390 kts | 302° |
| 2026-04-26 18:13 | 51.20624 | 19.15784 | 36239 ft | 391 kts | 302° |
| 2026-04-26 18:13 | 51.23418 | 19.08385 | 36237 ft | 391 kts | 301° |
| 2026-04-26 18:14 | 51.26211 | 19.00966 | 36245 ft | 391 kts | 302° |
| 2026-04-26 18:14 | 51.29014 | 18.93500 | 36244 ft | 391 kts | 301° |
| 2026-04-26 18:15 | 51.31786 | 18.86097 | 36239 ft | 392 kts | 301° |
| 2026-04-26 18:15 | 51.33210 | 18.82284 | 35940 ft | 398 kts | 301° |
| 2026-04-26 18:15 | 51.34606 | 18.78541 | 35475 ft | 396 kts | 301° |
| 2026-04-26 18:15 | 51.36027 | 18.74726 | 34950 ft | 394 kts | 301° |
| 2026-04-26 18:16 | 51.37411 | 18.71005 | 34417 ft | 393 kts | 301° |
| 2026-04-26 18:16 | 51.40189 | 18.63519 | 33399 ft | 392 kts | 301° |
| 2026-04-26 18:16 | 51.41560 | 18.59813 | 32822 ft | 390 kts | 301° |
| 2026-04-26 18:17 | 51.42942 | 18.56076 | 32069 ft | 387 kts | 302° |
| 2026-04-26 18:17 | 51.44293 | 18.52416 | 31333 ft | 384 kts | 302° |
| 2026-04-26 18:17 | 51.45632 | 18.48782 | 30598 ft | 381 kts | 302° |
| 2026-04-26 18:17 | 51.46980 | 18.45119 | 29836 ft | 377 kts | 302° |
| 2026-04-26 18:18 | 51.48296 | 18.41540 | 29098 ft | 374 kts | 302° |
| 2026-04-26 18:18 | 51.49591 | 18.38011 | 28361 ft | 371 kts | 302° |
| 2026-04-26 18:18 | 51.50888 | 18.34473 | 27612 ft | 368 kts | 301° |
| 2026-04-26 18:18 | 51.52185 | 18.30927 | 26858 ft | 365 kts | 302° |
| 2026-04-26 18:19 | 51.53458 | 18.27446 | 26109 ft | 362 kts | 302° |
| 2026-04-26 18:19 | 51.54716 | 18.24001 | 25361 ft | 360 kts | 302° |
| 2026-04-26 18:19 | 51.55955 | 18.20603 | 24627 ft | 357 kts | 302° |
| 2026-04-26 18:19 | 51.57198 | 18.17188 | 23878 ft | 355 kts | 302° |
| 2026-04-26 18:20 | 51.58436 | 18.13781 | 23124 ft | 352 kts | 302° |
| 2026-04-26 18:20 | 51.59661 | 18.10409 | 22372 ft | 349 kts | 302° |
| 2026-04-26 18:20 | 51.60876 | 18.07058 | 21621 ft | 346 kts | 303° |
| 2026-04-26 18:20 | 51.61675 | 18.04851 | 21119 ft | 344 kts | 302° |
| 2026-04-26 18:21 | 51.63257 | 18.00478 | 20123 ft | 340 kts | 303° |
| 2026-04-26 18:21 | 51.64428 | 17.97237 | 19382 ft | 337 kts | 303° |
| 2026-04-26 18:21 | 51.65597 | 17.93995 | 18627 ft | 335 kts | 303° |
| 2026-04-26 18:21 | 51.66748 | 17.90799 | 17841 ft | 327 kts | 303° |
| 2026-04-26 18:22 | 51.67867 | 17.87687 | 17077 ft | 316 kts | 304° |
| 2026-04-26 18:22 | 51.68952 | 17.84663 | 16319 ft | 307 kts | 304° |
| 2026-04-26 18:22 | 51.69999 | 17.81743 | 15571 ft | 300 kts | 304° |
| 2026-04-26 18:22 | 51.71023 | 17.78888 | 14818 ft | 293 kts | 304° |
| 2026-04-26 18:23 | 51.72021 | 17.76101 | 14076 ft | 288 kts | 303° |
| 2026-04-26 18:23 | 51.73003 | 17.73356 | 13351 ft | 283 kts | 304° |
| 2026-04-26 18:23 | 51.73986 | 17.70608 | 12610 ft | 279 kts | 304° |
| 2026-04-26 18:23 | 51.75045 | 17.68070 | 11875 ft | 273 kts | 317° |
| 2026-04-26 18:24 | 51.76603 | 17.66403 | 11217 ft | 274 kts | 332° |
| 2026-04-26 18:24 | 51.78274 | 17.64928 | 10609 ft | 275 kts | 331° |
| 2026-04-26 18:24 | 51.79917 | 17.63456 | 10316 ft | 265 kts | 331° |
| 2026-04-26 18:24 | 51.81486 | 17.62051 | 10269 ft | 250 kts | 331° |
| 2026-04-26 18:25 | 51.83033 | 17.60664 | 10264 ft | 253 kts | 331° |
| 2026-04-26 18:25 | 51.84580 | 17.59275 | 10262 ft | 254 kts | 331° |
| 2026-04-26 18:25 | 51.86115 | 17.57898 | 10263 ft | 254 kts | 331° |
| 2026-04-26 18:25 | 51.87668 | 17.56502 | 10264 ft | 254 kts | 331° |
| 2026-04-26 18:26 | 51.89210 | 17.55115 | 10262 ft | 254 kts | 331° |
| 2026-04-26 18:26 | 51.90758 | 17.53722 | 10265 ft | 254 kts | 331° |
| 2026-04-26 18:26 | 51.92304 | 17.52330 | 10266 ft | 254 kts | 331° |
| 2026-04-26 18:26 | 51.93847 | 17.50940 | 10266 ft | 254 kts | 331° |
| 2026-04-26 18:27 | 51.95391 | 17.49547 | 10264 ft | 255 kts | 331° |
| 2026-04-26 18:27 | 51.96943 | 17.48146 | 10266 ft | 255 kts | 331° |
| 2026-04-26 18:27 | 51.98495 | 17.46744 | 10266 ft | 255 kts | 331° |
| 2026-04-26 18:27 | 52.00046 | 17.45342 | 10268 ft | 254 kts | 331° |
| 2026-04-26 18:28 | 52.01575 | 17.43960 | 10267 ft | 254 kts | 331° |
| 2026-04-26 18:28 | 52.03114 | 17.42566 | 10266 ft | 254 kts | 331° |
| 2026-04-26 18:28 | 52.04680 | 17.41147 | 10268 ft | 254 kts | 331° |
| 2026-04-26 18:28 | 52.06219 | 17.39752 | 10265 ft | 254 kts | 331° |
| 2026-04-26 18:29 | 52.07726 | 17.38384 | 10269 ft | 240 kts | 331° |
| 2026-04-26 18:29 | 52.09112 | 17.37125 | 10271 ft | 222 kts | 331° |
| 2026-04-26 18:29 | 52.10420 | 17.35935 | 10272 ft | 208 kts | 331° |
| 2026-04-26 18:29 | 52.11701 | 17.34770 | 10043 ft | 215 kts | 330° |
| 2026-04-26 18:30 | 52.13049 | 17.33544 | 8990 ft | 240 kts | 330° |
| 2026-04-26 18:30 | 52.14523 | 17.32201 | 8217 ft | 245 kts | 330° |
| 2026-04-26 18:30 | 52.15972 | 17.30880 | 7786 ft | 237 kts | 330° |
| 2026-04-26 18:30 | 52.17387 | 17.29591 | 7325 ft | 224 kts | 330° |
| 2026-04-26 18:31 | 52.18694 | 17.28398 | 6942 ft | 208 kts | 330° |
| 2026-04-26 18:31 | 52.19935 | 17.27266 | 6632 ft | 204 kts | 330° |
| 2026-04-26 18:31 | 52.21129 | 17.26175 | 6355 ft | 188 kts | 330° |
| 2026-04-26 18:31 | 52.22172 | 17.25222 | 6093 ft | 156 kts | 330° |
| 2026-04-26 18:32 | 52.23088 | 17.24385 | 5884 ft | 149 kts | 330° |
| 2026-04-26 18:32 | 52.23989 | 17.23560 | 5706 ft | 147 kts | 330° |
| 2026-04-26 18:32 | 52.24871 | 17.22753 | 5503 ft | 145 kts | 330° |
| 2026-04-26 18:32 | 52.25756 | 17.21943 | 5322 ft | 145 kts | 330° |
| 2026-04-26 18:33 | 52.26676 | 17.21101 | 5144 ft | 157 kts | 330° |
| 2026-04-26 18:33 | 52.27642 | 17.20216 | 4926 ft | 162 kts | 330° |
| 2026-04-26 18:33 | 52.28621 | 17.19317 | 4696 ft | 161 kts | 331° |
| 2026-04-26 18:33 | 52.29600 | 17.18420 | 4475 ft | 162 kts | 331° |
| 2026-04-26 18:34 | 52.30594 | 17.17507 | 4320 ft | 165 kts | 331° |
| 2026-04-26 18:34 | 52.31580 | 17.16601 | 3990 ft | 160 kts | 331° |
| 2026-04-26 18:34 | 52.32556 | 17.15704 | 3873 ft | 163 kts | 331° |
| 2026-04-26 18:34 | 52.33515 | 17.14822 | 3622 ft | 149 kts | 331° |
| 2026-04-26 18:35 | 52.34385 | 17.14020 | 3412 ft | 142 kts | 331° |
| 2026-04-26 18:35 | 52.35245 | 17.13229 | 3203 ft | 140 kts | 331° |
| 2026-04-26 18:35 | 52.36073 | 17.12369 | 3120 ft | 142 kts | 321° |
| 2026-04-26 18:35 | 52.36662 | 17.11053 | 3039 ft | 144 kts | 299° |
| 2026-04-26 18:36 | 52.36976 | 17.09509 | 2997 ft | 145 kts | 289° |
| 2026-04-26 18:36 | 52.37220 | 17.07903 | 3010 ft | 146 kts | 289° |
| 2026-04-26 18:36 | 52.37492 | 17.06297 | 3011 ft | 145 kts | 290° |
| 2026-04-26 18:36 | 52.37796 | 17.04698 | 2908 ft | 148 kts | 292° |
| 2026-04-26 18:37 | 52.38099 | 17.03153 | 2722 ft | 134 kts | 292° |
| 2026-04-26 18:37 | 52.38376 | 17.01741 | 2535 ft | 128 kts | 292° |
| 2026-04-26 18:37 | 52.38643 | 17.00386 | 2349 ft | 124 kts | 292° |
| 2026-04-26 18:37 | 52.38906 | 16.99056 | 2193 ft | 123 kts | 293° |
| 2026-04-26 18:38 | 52.39167 | 16.97732 | 2032 ft | 122 kts | 293° |
| 2026-04-26 18:38 | 52.39428 | 16.96409 | 1877 ft | 122 kts | 293° |
| 2026-04-26 18:38 | 52.39686 | 16.95086 | 1713 ft | 121 kts | 293° |
| 2026-04-26 18:38 | 52.39942 | 16.93774 | 1554 ft | 122 kts | 292° |
| 2026-04-26 18:39 | 52.40201 | 16.92452 | 1379 ft | 121 kts | 293° |
| 2026-04-26 18:39 | 52.40458 | 16.91131 | 1227 ft | 121 kts | 292° |
| 2026-04-26 18:39 | 52.40713 | 16.89814 | 1068 ft | 121 kts | 291° |
| 2026-04-26 18:39 | 52.40968 | 16.88495 | 898 ft | 122 kts | 291° |
| 2026-04-26 18:40 | 52.41220 | 16.87186 | 732 ft | 121 kts | 290° |
| 2026-04-26 18:40 | 52.41477 | 16.85854 | 566 ft | 122 kts | 290° |
| 2026-04-26 18:40 | 52.41731 | 16.84542 | 397 ft | 122 kts | 290° |
| 2026-04-26 18:40 | 52.41978 | 16.83250 | 297 ft | 109 kts | 289° |
| 2026-04-26 18:41 | 52.42172 | 16.82281 | 294 ft | 61 kts | 287° |
| 2026-04-26 18:41 | 52.42267 | 16.81794 | 294 ft | 37 kts | 287° |
| 2026-04-26 18:41 | 52.42303 | 16.81535 | 296 ft | 20 kts | 268° |
| 2026-04-26 18:41 | 52.42286 | 16.81295 | 298 ft | 18 kts | 257° |
| 2026-04-26 18:42 | 52.42274 | 16.81201 | 299 ft | 0 kts | 259° |
| 2026-04-26 18:45 | 52.42266 | 16.81167 | 299 ft | 9 kts | 232° |
| 2026-04-26 18:45 | 52.42204 | 16.81225 | 297 ft | 14 kts | 107° |
| 2026-04-26 18:46 | 52.42167 | 16.81416 | 297 ft | 20 kts | 107° |
| 2026-04-26 18:46 | 52.42118 | 16.81668 | 294 ft | 26 kts | 107° |
| 2026-04-26 18:46 | 52.42060 | 16.81982 | 294 ft | 30 kts | 108° |
| 2026-04-26 18:46 | 52.42018 | 16.82193 | 293 ft | 8 kts | 108° |
| 2026-04-26 18:47 | 52.41975 | 16.82410 | 293 ft | 24 kts | 107° |
| 2026-04-26 18:47 | 52.41919 | 16.82699 | 292 ft | 27 kts | 107° |
| 2026-04-26 18:47 | 52.41871 | 16.82951 | 294 ft | 21 kts | 107° |
| 2026-04-26 18:47 | 52.41822 | 16.83205 | 293 ft | 25 kts | 107° |
| 2026-04-26 18:48 | 52.41766 | 16.83493 | 290 ft | 28 kts | 108° |
| 2026-04-26 18:48 | 52.41703 | 16.83816 | 288 ft | 23 kts | 107° |
| 2026-04-26 18:48 | 52.41656 | 16.83985 | 287 ft | 14 kts | 162° |
| 2026-04-26 18:48 | 52.41573 | 16.83878 | 286 ft | 17 kts | 234° |
| 2026-04-26 18:49 | 52.41564 | 16.83750 | 287 ft | 6 kts | 265° |
| 2026-04-26 18:49 | 52.41516 | 16.83720 | 287 ft | 6 kts | 182° |
| 2026-04-26 18:49 | 52.41498 | 16.83717 | 287 ft | 0 kts | 182° |